Time;durP1;ratioP1;P1;durP2;ratioP2;P2;SDS_P1;SDS_P2;PMS_P1;PMS_P2;Temp;Humidity;BMP_temperature;BMP_pressure;BME280_temperature;BME280_humidity;BME280_pressure;Samples;Min_cycle;Max_cycle;Signal;HPM_P1;HPM_P2
2024/02/21 00:02:21;;;;;;;27.10;10.07;;;8.60;1.00;;;;;;4989767;28;20288;-79
2024/02/21 00:04:48;;;;;;;20.90;9.17;;;8.60;1.00;;;;;;4993766;28;20763;-79
2024/02/21 00:07:17;;;;;;;23.67;10.43;;;8.60;1.00;;;;;;4987536;28;20692;-78
2024/02/21 00:09:44;;;;;;;24.60;9.37;;;8.60;1.00;;;;;;4992805;28;20292;-78
2024/02/21 00:12:13;;;;;;;22.10;10.63;;;8.60;99.90;;;;;;4993418;28;20205;-80
2024/02/21 00:14:40;;;;;;;21.77;9.80;;;8.60;99.90;;;;;;4994103;28;20212;-79
2024/02/21 00:17:08;;;;;;;24.17;11.03;;;8.60;99.90;;;;;;4990955;28;20284;-79
2024/02/21 00:19:35;;;;;;;20.00;9.23;;;8.60;99.90;;;;;;4997516;28;20229;-78
2024/02/21 00:22:02;;;;;;;21.67;11.67;;;8.60;99.90;;;;;;4995407;28;20296;-80
2024/02/21 00:24:30;;;;;;;24.83;11.00;;;8.50;99.90;;;;;;4992940;28;20715;-82
2024/02/21 00:26:57;;;;;;;29.97;12.40;;;8.50;1.00;;;;;;4986348;28;20663;-79
2024/02/21 00:29:23;;;;;;;30.60;12.53;;;8.60;1.00;;;;;;4986106;28;20311;-80
2024/02/21 00:31:50;;;;;;;28.43;10.60;;;8.50;1.00;;;;;;4980526;28;20237;-78
2024/02/21 00:34:17;;;;;;;25.07;12.13;;;8.50;1.00;;;;;;4980302;28;20613;-78
2024/02/21 00:36:44;;;;;;;24.87;11.87;;;8.50;1.00;;;;;;4981435;28;20197;-80
2024/02/21 00:39:11;;;;;;;31.07;12.03;;;8.60;1.00;;;;;;4984243;28;20879;-80
2024/02/21 00:41:39;;;;;;;24.50;11.47;;;8.60;1.00;;;;;;4981578;28;20292;-80
2024/02/21 00:44:06;;;;;;;23.90;12.03;;;8.50;1.00;;;;;;4982854;28;20720;-81
2024/02/21 00:46:33;;;;;;;24.33;11.57;;;8.50;1.00;;;;;;4982056;28;20207;-78
2024/02/21 00:49:00;;;;;;;24.00;11.73;;;8.50;1.00;;;;;;4982790;28;20701;-79
2024/02/21 00:51:27;;;;;;;25.50;11.87;;;8.50;99.90;;;;;;4990286;28;20308;-78
2024/02/21 00:53:54;;;;;;;24.63;11.83;;;8.50;99.90;;;;;;4996455;28;20229;-78
2024/02/21 00:56:21;;;;;;;26.10;12.17;;;8.60;1.00;;;;;;4992896;28;20211;-79
2024/02/21 00:58:49;;;;;;;24.60;11.33;;;8.50;24.40;;;;;;4987746;28;20253;-79
2024/02/21 01:01:23;;;;;;;26.43;11.97;;;8.60;1.00;;;;;;4991272;28;20280;-79
2024/02/21 01:03:51;;;;;;;22.57;11.50;;;8.60;1.00;;;;;;4988509;28;20212;-79
2024/02/21 01:06:17;;;;;;;26.70;12.20;;;8.60;1.00;;;;;;4987860;28;20205;-80
2024/02/21 01:08:44;;;;;;;24.30;11.93;;;8.60;1.00;;;;;;4989420;28;20617;-79
2024/02/21 01:11:11;;;;;;;25.10;11.93;;;8.60;1.00;;;;;;4990748;28;20208;-79
2024/02/21 01:13:38;;;;;;;27.83;11.60;;;8.60;1.00;;;;;;4991771;28;20268;-79
2024/02/21 01:16:07;;;;;;;24.27;11.90;;;8.70;99.90;;;;;;4989951;28;20229;-80
2024/02/21 01:18:34;;;;;;;29.53;13.13;;;8.70;99.90;;;;;;4988875;28;20563;-80
2024/02/21 01:21:01;;;;;;;26.20;11.20;;;8.70;99.90;;;;;;4992364;28;20197;-78
2024/02/21 01:23:28;;;;;;;26.57;11.27;;;8.70;99.90;;;;;;4988798;28;20236;-80
2024/02/21 01:25:55;;;;;;;28.50;10.73;;;8.60;1.00;;;;;;4989967;28;20201;-78
2024/02/21 01:28:22;;;;;;;24.97;10.63;;;8.70;1.00;;;;;;4990682;28;20234;-81
2024/02/21 01:30:49;;;;;;;24.73;11.00;;;8.60;99.90;;;;;;4981002;28;20209;-78
2024/02/21 01:33:17;;;;;;;20.67;10.20;;;8.60;1.00;;;;;;4981546;28;20202;-79
2024/02/21 01:35:44;;;;;;;23.40;11.03;;;8.60;99.90;;;;;;4980705;28;20289;-80
2024/02/21 01:38:11;;;;;;;22.10;10.53;;;8.60;99.90;;;;;;4981969;28;20336;-80
2024/02/21 01:40:38;;;;;;;21.17;11.00;;;8.70;99.90;;;;;;4979512;28;20671;-79
2024/02/21 01:43:05;;;;;;;22.77;11.30;;;8.80;25.60;;;;;;4980085;28;20395;-79
2024/02/21 01:45:31;;;;;;;28.43;12.53;;;8.70;1.00;;;;;;4983676;28;20299;-79
2024/02/21 01:47:59;;;;;;;22.53;11.17;;;8.70;1.00;;;;;;4990343;28;20221;-79
2024/02/21 01:50:27;;;;;;;24.23;11.80;;;8.80;1.00;;;;;;4984253;28;20236;-78
2024/02/21 01:52:54;;;;;;;23.77;11.77;;;8.80;99.90;;;;;;4980473;28;20436;-79
2024/02/21 01:55:21;;;;;;;25.77;12.37;;;8.80;99.90;;;;;;4984617;28;20280;-79
2024/02/21 01:57:48;;;;;;;24.17;12.37;;;8.80;99.90;;;;;;4988484;28;20201;-80
2024/02/21 02:00:17;;;;;;;24.20;11.77;;;8.80;99.90;;;;;;4995660;28;20247;-80
2024/02/21 02:02:44;;;;;;;23.60;12.23;;;8.80;99.90;;;;;;4992128;28;20699;-79
2024/02/21 02:05:12;;;;;;;25.63;12.27;;;8.80;99.90;;;;;;4986880;28;20698;-79
2024/02/21 02:07:40;;;;;;;23.23;12.10;;;8.70;99.90;;;;;;4989941;28;20256;-80
2024/02/21 02:10:09;;;;;;;23.27;12.10;;;8.80;99.90;;;;;;4986112;28;20224;-79
2024/02/21 02:12:37;;;;;;;24.03;13.30;;;8.80;99.90;;;;;;4992202;28;20205;-80
2024/02/21 02:15:05;;;;;;;27.23;12.33;;;8.80;52.40;;;;;;4987836;28;20202;-79
2024/02/21 02:17:32;;;;;;;28.30;12.80;;;8.80;56.50;;;;;;4986087;28;20441;-78
2024/02/21 02:19:59;;;;;;;25.10;13.53;;;8.80;1.00;;;;;;4989257;28;20256;-79
2024/02/21 02:22:29;;;;;;;26.97;13.53;;;8.80;1.00;;;;;;4989216;28;20572;-79
2024/02/21 02:24:58;;;;;;;21.03;11.93;;;8.80;1.00;;;;;;4989818;28;20239;-80
2024/02/21 02:27:25;;;;;;;22.30;13.47;;;8.90;1.00;;;;;;4988893;28;20229;-80
2024/02/21 02:29:52;;;;;;;25.87;12.37;;;8.80;1.00;;;;;;4989234;28;20692;-79
2024/02/21 02:32:19;;;;;;;24.03;13.10;;;8.80;1.00;;;;;;4978203;28;20233;-80
2024/02/21 02:34:46;;;;;;;25.73;12.50;;;8.90;1.00;;;;;;4981990;28;20260;-80
2024/02/21 02:37:12;;;;;;;27.23;13.50;;;8.90;1.00;;;;;;4978920;28;20205;-79
2024/02/21 02:39:39;;;;;;;26.33;12.97;;;8.90;1.00;;;;;;4981913;28;20301;-79
2024/02/21 02:42:08;;;;;;;25.67;12.57;;;8.80;1.00;;;;;;4983099;28;20593;-79
2024/02/21 02:44:35;;;;;;;26.23;13.13;;;8.80;1.00;;;;;;4982072;28;20217;-79
2024/02/21 02:47:02;;;;;;;26.40;14.13;;;8.90;1.00;;;;;;4980506;28;20676;-80
2024/02/21 02:49:29;;;;;;;29.73;14.50;;;8.90;1.00;;;;;;4989744;28;20221;-80
2024/02/21 02:51:55;;;;;;;27.47;13.23;;;8.90;1.00;;;;;;4982482;28;20210;-79
2024/02/21 02:54:22;;;;;;;26.80;13.20;;;8.80;1.00;;;;;;4986575;28;20206;-80
2024/02/21 02:56:51;;;;;;;26.77;13.73;;;8.90;99.90;;;;;;4988591;28;20650;-80
2024/02/21 02:59:19;;;;;;;25.27;13.90;;;8.90;99.90;;;;;;4984753;28;20221;-78
2024/02/21 03:01:46;;;;;;;21.63;12.70;;;8.90;99.90;;;;;;4987945;28;20272;-78
2024/02/21 03:04:13;;;;;;;29.83;14.27;;;8.90;99.90;;;;;;4998574;28;20200;-78
2024/02/21 03:06:40;;;;;;;29.47;14.43;;;9.00;99.90;;;;;;4998205;28;20296;-80
2024/02/21 03:09:08;;;;;;;22.07;12.70;;;9.00;99.90;;;;;;4996898;28;20252;-80
2024/02/21 03:11:36;;;;;;;25.47;14.40;;;8.90;99.90;;;;;;4989774;28;20245;-80
2024/02/21 03:14:03;;;;;;;25.30;12.80;;;8.90;99.90;;;;;;4992144;28;20256;-80
2024/02/21 03:16:31;;;;;;;25.03;12.43;;;8.90;99.90;;;;;;4994097;28;20204;-80
2024/02/21 03:18:58;;;;;;;25.83;13.77;;;8.90;99.90;;;;;;4995249;28;20240;-80
2024/02/21 03:21:25;;;;;;;29.67;14.17;;;9.00;99.90;;;;;;4995917;28;20313;-79
2024/02/21 03:23:52;;;;;;;26.87;14.03;;;9.00;1.00;;;;;;4997680;28;20209;-80
2024/02/21 03:26:19;;;;;;;23.47;13.50;;;9.00;1.00;;;;;;4997103;28;20275;-80
2024/02/21 03:28:46;;;;;;;25.63;13.20;;;9.00;1.00;;;;;;4994860;28;20233;-79
2024/02/21 03:31:14;;;;;;;25.00;13.43;;;9.10;1.00;;;;;;4987452;28;20229;-79
2024/02/21 03:33:43;;;;;;;30.90;13.87;;;9.00;1.00;;;;;;4986111;28;20293;-80
2024/02/21 03:36:14;;;;;;;26.20;12.37;;;9.00;1.00;;;;;;4987924;28;20732;-80
2024/02/21 03:38:41;;;;;;;20.87;12.07;;;9.00;1.00;;;;;;4982425;28;20222;-80
2024/02/21 03:41:08;;;;;;;34.17;13.33;;;9.00;1.00;;;;;;4985912;28;20680;-80
2024/02/21 03:43:35;;;;;;;22.83;12.83;;;9.00;1.00;;;;;;4987179;28;20272;-81
2024/02/21 03:46:02;;;;;;;24.93;13.63;;;9.10;99.90;;;;;;4987960;28;20664;-80
2024/02/21 03:48:29;;;;;;;24.40;12.27;;;9.10;99.90;;;;;;4986201;28;20236;-78
2024/02/21 03:50:57;;;;;;;23.00;13.27;;;8.90;1.00;;;;;;4985403;28;20206;-81
2024/02/21 03:53:24;;;;;;;24.10;11.87;;;8.90;1.00;;;;;;4986001;28;20555;-78
2024/02/21 03:55:51;;;;;;;21.57;12.50;;;8.90;1.00;;;;;;4991935;28;20672;-81
2024/02/21 03:58:17;;;;;;;27.27;13.37;;;8.90;1.00;;;;;;4990123;28;20225;-81
2024/02/21 04:00:44;;;;;;;23.40;13.83;;;8.80;1.00;;;;;;4988109;28;20218;-79
2024/02/21 04:03:11;;;;;;;27.47;13.43;;;8.80;1.00;;;;;;4984677;28;20663;-80
2024/02/21 04:05:38;;;;;;;26.20;12.60;;;8.80;1.00;;;;;;4992554;28;20240;-80
2024/02/21 04:08:07;;;;;;;24.13;12.10;;;8.70;1.00;;;;;;4992627;28;20651;-78
2024/02/21 04:10:35;;;;;;;25.47;13.70;;;8.80;1.00;;;;;;4993767;28;20300;-81
2024/02/21 04:13:02;;;;;;;25.63;13.53;;;8.80;1.00;;;;;;4996928;28;20213;-80
2024/02/21 04:15:29;;;;;;;24.27;12.80;;;8.80;1.00;;;;;;4995289;28;20279;-80
2024/02/21 04:17:55;;;;;;;22.40;13.20;;;8.80;1.00;;;;;;4995708;28;20288;-79
2024/02/21 04:20:22;;;;;;;24.37;11.37;;;8.90;1.00;;;;;;4993273;28;20312;-80
2024/02/21 04:22:50;;;;;;;23.03;12.80;;;8.90;1.00;;;;;;4997597;28;20205;-79
2024/02/21 04:25:19;;;;;;;21.50;12.47;;;8.90;1.00;;;;;;4994904;28;20236;-79
2024/02/21 04:27:46;;;;;;;26.07;12.60;;;8.90;99.90;;;;;;4996224;28;20205;-81
2024/02/21 04:30:13;;;;;;;22.20;11.83;;;8.90;1.00;;;;;;4993629;28;20256;-80
2024/02/21 04:32:40;;;;;;;22.33;11.83;;;8.90;1.00;;;;;;4981663;28;20233;-78
2024/02/21 04:35:08;;;;;;;21.87;12.63;;;8.90;1.00;;;;;;4982005;28;20197;-79
2024/02/21 04:37:35;;;;;;;26.90;14.30;;;8.80;1.00;;;;;;4982725;28;20205;-79
2024/02/21 04:40:02;;;;;;;24.17;12.43;;;8.90;1.00;;;;;;4982334;28;20292;-79
2024/02/21 04:42:30;;;;;;;23.90;12.90;;;8.90;1.00;;;;;;4986546;28;20711;-80
2024/02/21 04:44:57;;;;;;;23.07;13.07;;;8.90;1.00;;;;;;4981534;28;20209;-80
2024/02/21 04:47:24;;;;;;;24.50;13.07;;;8.90;1.00;;;;;;4985346;28;20273;-80
2024/02/21 04:49:51;;;;;;;26.80;12.73;;;8.90;1.00;;;;;;4978685;28;20229;-80
2024/02/21 04:52:19;;;;;;;28.57;12.73;;;8.90;1.00;;;;;;4984714;28;20240;-79
2024/02/21 04:54:45;;;;;;;25.60;12.00;;;8.90;1.00;;;;;;4986508;28;20264;-80
2024/02/21 04:57:16;;;;;;;23.40;12.67;;;8.90;1.00;;;;;;4986989;28;20288;-79
2024/02/21 04:59:45;;;;;;;22.80;11.90;;;8.90;1.00;;;;;;4989837;28;20221;-79
2024/02/21 05:02:12;;;;;;;21.80;12.00;;;8.90;1.00;;;;;;4982709;28;20206;-79
2024/02/21 05:04:40;;;;;;;21.97;12.20;;;8.90;1.00;;;;;;4994220;28;20282;-81
2024/02/21 05:07:06;;;;;;;21.80;12.83;;;8.90;1.00;;;;;;4984482;28;20233;-79
2024/02/21 05:09:33;;;;;;;23.43;12.40;;;8.90;1.00;;;;;;4983895;28;20679;-79
2024/02/21 05:12:00;;;;;;;23.27;11.90;;;9.00;1.00;;;;;;4983389;28;20261;-79
2024/02/21 05:14:27;;;;;;;19.57;11.17;;;9.10;99.90;;;;;;4989275;28;20230;-78
2024/02/21 05:16:56;;;;;;;25.93;12.50;;;9.00;1.00;;;;;;4993256;28;20215;-80
2024/02/21 05:19:22;;;;;;;25.67;12.93;;;9.00;99.90;;;;;;4995061;28;20307;-79
2024/02/21 05:21:49;;;;;;;23.43;11.97;;;9.00;1.00;;;;;;4994366;28;20291;-78
2024/02/21 05:24:16;;;;;;;19.57;11.23;;;9.00;1.00;;;;;;4992647;28;20614;-78
2024/02/21 05:26:43;;;;;;;22.97;12.10;;;9.00;1.00;;;;;;4994471;28;20288;-79
2024/02/21 05:29:10;;;;;;;21.47;11.70;;;9.00;1.00;;;;;;4993700;28;20252;-79
2024/02/21 05:31:58;;;;;;;22.40;11.00;;;9.00;1.00;;;;;;4995717;28;20209;-79
2024/02/21 05:34:25;;;;;;;23.67;12.00;;;9.00;99.90;;;;;;4978421;28;20202;-78
2024/02/21 05:36:52;;;;;;;24.83;12.57;;;9.00;1.00;;;;;;4980027;28;20473;-80
2024/02/21 05:39:19;;;;;;;22.27;12.13;;;9.10;99.90;;;;;;4980360;28;20230;-80
2024/02/21 05:41:46;;;;;;;23.60;12.63;;;9.10;99.90;;;;;;4984754;28;20672;-79
2024/02/21 05:44:13;;;;;;;20.43;11.87;;;9.00;99.90;;;;;;4982528;28;20257;-79
2024/02/21 05:46:40;;;;;;;23.50;12.50;;;9.00;99.90;;;;;;4982487;28;20219;-79
2024/02/21 05:49:08;;;;;;;23.57;12.63;;;9.00;99.90;;;;;;4982531;28;20255;-81
2024/02/21 05:51:35;;;;;;;26.67;13.13;;;9.00;99.90;;;;;;4985120;28;20243;-77
2024/02/21 05:54:03;;;;;;;23.10;11.80;;;9.00;99.90;;;;;;4980019;28;20229;-78
2024/02/21 05:56:29;;;;;;;22.13;12.10;;;9.00;1.00;;;;;;4987196;28;20255;-79
2024/02/21 05:58:56;;;;;;;26.20;13.00;;;9.00;1.00;;;;;;4982360;28;20300;-81
2024/02/21 06:01:22;;;;;;;22.60;11.97;;;9.00;99.90;;;;;;4981740;28;20672;-81
2024/02/21 06:03:49;;;;;;;21.57;11.87;;;9.00;99.90;;;;;;4987468;28;20201;-79
2024/02/21 06:06:17;;;;;;;20.83;11.00;;;9.00;1.00;;;;;;4985182;28;20285;-79
2024/02/21 06:08:44;;;;;;;20.77;11.20;;;9.00;1.00;;;;;;4989705;28;20288;-79
2024/02/21 06:11:11;;;;;;;22.97;11.93;;;8.90;1.00;;;;;;4990135;28;20881;-79
2024/02/21 06:13:40;;;;;;;19.43;11.50;;;9.00;1.00;;;;;;4988105;28;20256;-79
2024/02/21 06:16:08;;;;;;;21.97;12.20;;;8.90;99.90;;;;;;4985036;28;20556;-79
2024/02/21 06:18:37;;;;;;;24.00;11.40;;;9.00;99.90;;;;;;4993928;28;20229;-79
2024/02/21 06:21:04;;;;;;;21.00;11.40;;;8.90;1.00;;;;;;4993290;28;20221;-78
2024/02/21 06:23:33;;;;;;;18.37;10.97;;;8.90;1.00;;;;;;4988736;28;20237;-80
2024/02/21 06:26:00;;;;;;;17.43;10.00;;;8.90;1.00;;;;;;4998913;28;20209;-80
2024/02/21 06:28:27;;;;;;;21.03;11.17;;;8.90;1.00;;;;;;4999794;28;20219;-80
2024/02/21 06:30:54;;;;;;;19.73;11.90;;;8.90;1.00;;;;;;5000393;28;20296;-80
2024/02/21 06:33:24;;;;;;;20.33;10.57;;;8.90;99.90;;;;;;4981350;28;20278;-79
2024/02/21 06:35:52;;;;;;;22.30;10.73;;;8.90;1.00;;;;;;4980563;28;20201;-80
2024/02/21 06:38:19;;;;;;;23.93;12.13;;;8.80;1.00;;;;;;4981708;28;20273;-79
2024/02/21 06:40:51;;;;;;;19.77;11.13;;;8.80;1.00;;;;;;4982099;28;20206;-79
2024/02/21 06:43:19;;;;;;;21.70;11.80;;;8.80;1.00;;;;;;4990119;28;20634;-79
2024/02/21 06:45:50;;;;;;;22.20;11.50;;;8.80;1.00;;;;;;4984455;28;20210;-79
2024/02/21 06:48:18;;;;;;;20.13;11.13;;;8.80;1.00;;;;;;4984107;28;20220;-80
2024/02/21 06:50:45;;;;;;;20.30;11.27;;;8.80;1.00;;;;;;4984199;28;20240;-79
2024/02/21 06:53:11;;;;;;;19.70;10.70;;;8.80;1.00;;;;;;4991408;28;20237;-80
2024/02/21 06:55:38;;;;;;;20.80;10.67;;;8.80;1.00;;;;;;4985777;28;20205;-78
2024/02/21 06:58:11;;;;;;;21.57;11.10;;;8.80;1.00;;;;;;4987479;28;20617;-79
2024/02/21 07:00:39;;;;;;;23.13;10.93;;;8.80;1.00;;;;;;4984792;28;20202;-80
2024/02/21 07:03:05;;;;;;;19.60;9.80;;;8.80;1.00;;;;;;4991360;28;20209;-80
2024/02/21 07:05:32;;;;;;;21.03;10.00;;;8.80;1.00;;;;;;4995032;28;20263;-80
2024/02/21 07:07:59;;;;;;;21.03;9.93;;;8.80;1.00;;;;;;4991193;28;20698;-79
2024/02/21 07:10:27;;;;;;;17.97;9.80;;;8.90;1.00;;;;;;4993404;28;20226;-80
2024/02/21 07:12:54;;;;;;;18.43;9.33;;;8.90;1.00;;;;;;4993615;28;20201;-81
2024/02/21 07:15:26;;;;;;;17.07;9.20;;;8.90;1.00;;;;;;4991895;28;20666;-82
2024/02/21 07:17:53;;;;;;;17.00;10.43;;;8.90;1.00;;;;;;4996538;28;20216;-79
2024/02/21 07:20:20;;;;;;;19.47;9.67;;;9.00;1.00;;;;;;4996706;28;20252;-79
2024/02/21 07:22:47;;;;;;;19.90;9.70;;;9.00;1.00;;;;;;4993712;28;20241;-81
2024/02/21 07:25:14;;;;;;;19.13;9.30;;;9.10;1.00;;;;;;4997235;28;20284;-81
2024/02/21 07:27:41;;;;;;;21.07;10.33;;;9.00;1.00;;;;;;4996001;28;20649;-81
2024/02/21 07:30:09;;;;;;;18.87;9.67;;;9.00;1.00;;;;;;4996706;28;20253;-80
2024/02/21 07:32:37;;;;;;;19.90;10.37;;;9.00;1.00;;;;;;4999647;28;20288;-82
2024/02/21 07:35:05;;;;;;;18.57;9.13;;;9.10;1.00;;;;;;4987219;28;20256;-80
2024/02/21 07:37:32;;;;;;;18.70;8.90;;;9.10;99.90;;;;;;4982630;28;20272;-80
2024/02/21 07:39:59;;;;;;;18.17;9.70;;;9.10;1.00;;;;;;4988980;28;20245;-79
2024/02/21 07:42:26;;;;;;;17.97;9.37;;;9.10;1.00;;;;;;4982779;28;20202;-80
2024/02/21 07:44:53;;;;;;;22.63;10.40;;;9.10;1.00;;;;;;4983620;28;20218;-81
2024/02/21 07:47:20;;;;;;;22.47;10.13;;;9.10;99.90;;;;;;4986496;28;20649;-80
2024/02/21 07:49:48;;;;;;;18.63;10.60;;;9.20;99.90;;;;;;4988604;28;20236;-80
2024/02/21 07:52:15;;;;;;;20.27;10.00;;;9.10;1.00;;;;;;4987936;28;20271;-79
2024/02/21 07:54:43;;;;;;;17.00;8.90;;;9.10;1.00;;;;;;4982649;28;20209;-81
2024/02/21 07:57:09;;;;;;;23.17;10.20;;;9.10;99.90;;;;;;4982552;28;20213;-80
2024/02/21 07:59:36;;;;;;;21.07;10.87;;;9.10;99.90;;;;;;4987157;28;20224;-81
2024/02/21 08:02:06;;;;;;;19.37;10.53;;;9.20;1.00;;;;;;4988612;28;20382;-80
2024/02/21 08:04:33;;;;;;;19.73;9.60;;;9.10;1.00;;;;;;4988433;28;20271;-81
2024/02/21 08:07:04;;;;;;;19.73;10.33;;;9.20;1.00;;;;;;4993476;28;20212;-80
2024/02/21 08:09:31;;;;;;;18.97;9.37;;;9.20;99.90;;;;;;4989451;28;20225;-79
2024/02/21 08:11:58;;;;;;;23.23;9.67;;;9.20;1.00;;;;;;4986662;28;20284;-80
2024/02/21 08:14:25;;;;;;;21.97;10.33;;;9.20;1.00;;;;;;4993789;28;20572;-80
2024/02/21 08:16:53;;;;;;;17.70;9.33;;;9.20;1.00;;;;;;4995706;28;20207;-81
2024/02/21 08:19:20;;;;;;;16.67;9.50;;;9.20;1.00;;;;;;4989570;28;20316;-80
2024/02/21 08:21:47;;;;;;;16.97;9.47;;;9.20;1.00;;;;;;4992079;28;20216;-80
2024/02/21 08:24:15;;;;;;;16.97;9.60;;;9.20;1.00;;;;;;4993488;28;20268;-81
2024/02/21 08:26:44;;;;;;;19.40;9.47;;;9.10;1.00;;;;;;4990789;28;20232;-79
2024/02/21 08:29:11;;;;;;;19.20;9.77;;;9.30;1.00;;;;;;4982408;28;20236;-78
2024/02/21 08:31:38;;;;;;;18.53;9.17;;;9.30;1.00;;;;;;4981021;28;20205;-79
2024/02/21 08:34:05;;;;;;;19.17;9.40;;;9.30;1.00;;;;;;4979389;28;20202;-80
2024/02/21 08:36:32;;;;;;;18.10;8.83;;;9.40;99.90;;;;;;4995752;28;20209;-80
2024/02/21 08:39:00;;;;;;;18.30;9.33;;;9.40;99.90;;;;;;4997468;28;20223;-81
2024/02/21 08:41:28;;;;;;;16.07;7.90;;;9.40;99.90;;;;;;4985026;28;20292;-78
2024/02/21 08:43:55;;;;;;;19.00;10.43;;;9.50;99.90;;;;;;4981035;28;20243;-79
2024/02/21 08:46:24;;;;;;;18.10;8.80;;;9.50;99.90;;;;;;4983836;28;20198;-79
2024/02/21 08:48:51;;;;;;;17.73;8.33;;;9.50;99.90;;;;;;4989659;28;20240;-80
2024/02/21 08:51:18;;;;;;;16.83;8.57;;;9.60;99.90;;;;;;4986822;28;20316;-79
2024/02/21 08:53:45;;;;;;;15.50;8.20;;;9.60;99.90;;;;;;4983942;28;20208;-80
2024/02/21 08:56:12;;;;;;;12.37;6.27;;;9.70;99.90;;;;;;4984223;28;20253;-79
2024/02/21 08:58:41;;;;;;;12.63;6.87;;;9.80;1.00;;;;;;4986078;28;20257;-80
2024/02/21 09:01:10;;;;;;;13.73;6.87;;;9.90;1.00;;;;;;4983346;28;20218;-80
2024/02/21 09:03:37;;;;;;;12.53;6.50;;;10.00;1.00;;;;;;4988442;28;20288;-80
2024/02/21 09:06:06;;;;;;;16.83;7.00;;;10.00;1.00;;;;;;4986063;28;20198;-79
2024/02/21 09:08:33;;;;;;;14.07;6.70;;;10.00;1.00;;;;;;4990980;28;20264;-79
2024/02/21 09:11:01;;;;;;;13.93;6.73;;;10.00;1.00;;;;;;4987501;28;20217;-80
2024/02/21 09:13:28;;;;;;;11.70;6.47;;;10.00;1.00;;;;;;4992913;28;20233;-78
2024/02/21 09:15:56;;;;;;;15.70;6.33;;;10.00;1.00;;;;;;4994526;28;20205;-78
2024/02/21 09:18:23;;;;;;;11.33;6.13;;;10.00;99.90;;;;;;4987135;28;20232;-78
2024/02/21 09:20:50;;;;;;;13.10;6.87;;;10.00;99.90;;;;;;4990193;28;20236;-79
2024/02/21 09:23:19;;;;;;;11.23;5.43;;;10.00;99.90;;;;;;4993570;28;20707;-79
2024/02/21 09:25:46;;;;;;;12.47;6.13;;;10.00;99.90;;;;;;4990078;28;20204;-80
2024/02/21 09:28:14;;;;;;;13.30;5.57;;;10.10;99.90;;;;;;4995741;28;20201;-79
2024/02/21 09:30:41;;;;;;;12.07;5.53;;;10.10;99.90;;;;;;4983022;28;20253;-80
2024/02/21 09:33:09;;;;;;;12.50;6.20;;;10.10;40.00;;;;;;4991829;28;20206;-80
2024/02/21 09:35:36;;;;;;;14.43;5.87;;;10.20;1.00;;;;;;4987366;28;20240;-79
2024/02/21 09:38:03;;;;;;;12.97;6.07;;;10.10;1.00;;;;;;4982487;28;20214;-80
2024/02/21 09:40:31;;;;;;;10.57;5.77;;;10.10;1.00;;;;;;4994771;28;20204;-80
2024/02/21 09:43:06;;;;;;;12.43;5.73;;;10.10;1.00;;;;;;4996155;28;20209;-80
2024/02/21 09:45:33;;;;;;;13.77;5.83;;;10.20;1.00;;;;;;4995354;28;20204;-81
2024/02/21 09:48:16;;;;;;;14.53;5.77;;;10.30;1.00;;;;;;4982957;28;20256;-80
2024/02/21 09:50:44;;;;;;;11.60;5.77;;;10.30;1.00;;;;;;4983697;28;20244;-81
2024/02/21 09:53:14;;;;;;;9.57;5.10;;;10.40;1.00;;;;;;4982927;28;20205;-80
2024/02/21 09:55:41;;;;;;;8.00;4.90;;;10.50;1.00;;;;;;4984997;28;20283;-81
2024/02/21 09:58:09;;;;;;;10.07;5.10;;;10.60;1.00;;;;;;4981699;28;20209;-81
2024/02/21 10:00:37;;;;;;;8.47;5.27;;;10.60;1.00;;;;;;4989149;28;20209;-80
2024/02/21 10:03:09;;;;;;;11.87;5.07;;;10.60;1.00;;;;;;4992629;28;20198;-79
2024/02/21 10:05:39;;;;;;;9.07;4.77;;;10.60;1.00;;;;;;4989527;28;20488;-81
2024/02/21 10:08:06;;;;;;;9.20;4.80;;;10.70;1.00;;;;;;4994145;28;20216;-80
2024/02/21 10:10:42;;;;;;;9.97;4.57;;;10.70;1.00;;;;;;4995006;28;20721;-79
2024/02/21 10:13:10;;;;;;;8.20;4.37;;;10.70;1.00;;;;;;4988904;28;20231;-78
2024/02/21 10:15:37;;;;;;;10.50;5.17;;;10.70;1.00;;;;;;4990771;28;20264;-78
2024/02/21 10:18:06;;;;;;;9.60;4.60;;;10.80;1.00;;;;;;4994356;28;20232;-81
2024/02/21 10:20:33;;;;;;;9.70;4.57;;;10.80;1.00;;;;;;4998327;28;20201;-80
2024/02/21 10:23:08;;;;;;;9.87;4.27;;;10.90;1.00;;;;;;4990395;28;20204;-81
2024/02/21 10:25:35;;;;;;;9.40;4.40;;;10.90;1.00;;;;;;4991861;28;20204;-80
2024/02/21 10:28:03;;;;;;;8.70;3.77;;;11.10;1.00;;;;;;4996961;28;20201;-79
2024/02/21 10:30:30;;;;;;;9.57;4.00;;;11.00;99.90;;;;;;4990652;28;20259;-81
2024/02/21 10:32:57;;;;;;;8.27;3.83;;;11.10;1.00;;;;;;4994799;28;20232;-80
2024/02/21 10:35:28;;;;;;;10.67;4.03;;;11.30;99.90;;;;;;4985607;28;20197;-80
2024/02/21 10:37:56;;;;;;;5.47;3.87;;;11.40;99.90;;;;;;4982018;28;20657;-80
2024/02/21 10:40:25;;;;;;;8.57;3.57;;;11.50;99.90;;;;;;4982985;28;20644;-81
2024/02/21 10:42:58;;;;;;;7.13;3.80;;;11.60;99.90;;;;;;4986934;28;20270;-79
2024/02/21 10:45:31;;;;;;;10.10;4.00;;;11.50;99.90;;;;;;4988519;28;20575;-80
2024/02/21 10:48:09;;;;;;;6.43;3.50;;;11.50;99.90;;;;;;4995575;28;20205;-79
2024/02/21 10:50:42;;;;;;;6.13;3.30;;;11.50;99.90;;;;;;4998373;28;20335;-79
2024/02/21 10:53:19;;;;;;;10.90;3.90;;;11.50;99.90;;;;;;4990867;28;20210;-79
2024/02/21 10:55:55;;;;;;;7.83;3.33;;;11.50;99.90;;;;;;4994019;28;20224;-79
2024/02/21 10:58:22;;;;;;;8.00;3.90;;;11.50;99.90;;;;;;4989493;28;20217;-80
2024/02/21 11:00:51;;;;;;;7.67;3.43;;;11.50;99.90;;;;;;4992283;28;20667;-80
2024/02/21 11:03:18;;;;;;;5.13;2.87;;;11.50;99.90;;;;;;4989872;28;20202;-80
2024/02/21 11:05:46;;;;;;;6.13;3.20;;;11.60;99.90;;;;;;4990205;28;20213;-80
2024/02/21 11:08:14;;;;;;;5.93;3.33;;;11.70;99.90;;;;;;4989320;28;20228;-79
2024/02/21 11:10:48;;;;;;;8.30;3.37;;;11.70;99.90;;;;;;4995938;28;20765;-81
2024/02/21 11:13:15;;;;;;;6.70;3.27;;;11.90;99.90;;;;;;4988858;28;20569;-81
2024/02/21 11:15:42;;;;;;;9.37;3.00;;;11.80;99.90;;;;;;4992515;28;20212;-80
2024/02/21 11:18:09;;;;;;;7.17;2.97;;;11.60;99.90;;;;;;4993794;28;20205;-79
2024/02/21 11:20:37;;;;;;;5.30;2.83;;;11.50;99.90;;;;;;4992985;28;20205;-78
2024/02/21 11:23:04;;;;;;;7.47;2.73;;;11.40;99.90;;;;;;4994240;28;20202;-79
2024/02/21 11:25:33;;;;;;;6.23;2.73;;;11.40;99.90;;;;;;4992476;28;20269;-80
2024/02/21 11:28:03;;;;;;;5.43;2.90;;;11.40;99.90;;;;;;4992963;28;20208;-81
2024/02/21 11:30:32;;;;;;;5.43;2.60;;;11.40;99.90;;;;;;4991423;28;20265;-78
2024/02/21 11:33:03;;;;;;;4.83;2.60;;;11.40;99.90;;;;;;4988687;28;20209;-80
2024/02/21 11:35:34;;;;;;;5.47;2.90;;;11.30;99.90;;;;;;4987728;28;20241;-80
2024/02/21 11:38:14;;;;;;;5.13;3.10;;;11.30;99.90;;;;;;4982159;28;20220;-79
2024/02/21 11:40:42;;;;;;;5.20;3.20;;;11.40;99.90;;;;;;4986484;28;20231;-79
2024/02/21 11:43:10;;;;;;;6.93;2.70;;;11.40;99.90;;;;;;4983795;28;20202;-80
2024/02/21 11:45:39;;;;;;;5.17;2.50;;;11.40;68.80;;;;;;4984976;28;20676;-81
2024/02/21 11:48:07;;;;;;;7.57;3.33;;;11.40;99.90;;;;;;4989688;28;20198;-80
2024/02/21 11:50:36;;;;;;;6.73;3.73;;;11.50;99.90;;;;;;4984907;28;20241;-80
2024/02/21 11:53:03;;;;;;;6.43;3.10;;;11.50;99.70;;;;;;4991143;28;20579;-80
2024/02/21 11:55:30;;;;;;;8.40;3.80;;;11.50;80.00;;;;;;4998642;28;20217;-78
2024/02/21 11:57:57;;;;;;;8.33;3.67;;;11.50;45.60;;;;;;4999145;28;20201;-82
2024/02/21 12:00:27;;;;;;;11.03;4.10;;;11.50;33.90;;;;;;4992835;28;20204;-80
2024/02/21 12:02:55;;;;;;;9.93;4.60;;;11.40;70.50;;;;;;4988618;28;20205;-80
2024/02/21 12:05:22;;;;;;;8.17;4.80;;;11.50;57.40;;;;;;4990881;28;20202;-80
2024/02/21 12:07:49;;;;;;;7.83;5.20;;;11.40;58.40;;;;;;4993902;28;20248;-78
2024/02/21 12:10:16;;;;;;;9.83;5.73;;;11.60;90.30;;;;;;4990777;28;20257;-80
2024/02/21 12:12:43;;;;;;;10.97;5.80;;;11.90;90.30;;;;;;4991458;28;20252;-79
2024/02/21 12:15:10;;;;;;;12.97;6.77;;;12.00;99.70;;;;;;4989262;28;20210;-79
2024/02/21 12:17:38;;;;;;;11.27;6.27;;;12.10;35.70;;;;;;4995373;28;20263;-79
2024/02/21 12:20:08;;;;;;;13.10;7.00;;;12.00;64.10;;;;;;4990380;28;20229;-81
2024/02/21 12:22:36;;;;;;;12.37;7.13;;;11.90;12.60;;;;;;4990056;28;20201;-79
2024/02/21 12:25:07;;;;;;;12.67;6.90;;;11.90;15.20;;;;;;4997931;28;20201;-81
2024/02/21 12:27:34;;;;;;;12.77;6.53;;;11.90;1.00;;;;;;4995113;28;20574;-79
2024/02/21 12:30:03;;;;;;;11.63;6.63;;;12.00;26.30;;;;;;4989021;28;20638;-79
2024/02/21 12:32:29;;;;;;;13.47;7.07;;;12.10;44.00;;;;;;4987780;28;20228;-80
2024/02/21 12:34:58;;;;;;;14.30;7.70;;;12.40;56.30;;;;;;4982623;28;20201;-80
2024/02/21 12:37:26;;;;;;;13.83;6.87;;;12.20;1.40;;;;;;4981296;28;20202;-80
2024/02/21 12:39:53;;;;;;;13.13;7.13;;;12.20;5.90;;;;;;4981196;28;20579;-78
2024/02/21 12:42:20;;;;;;;15.20;7.57;;;12.30;1.00;;;;;;4983472;28;20244;-80
2024/02/21 12:44:47;;;;;;;14.50;6.87;;;12.10;1.00;;;;;;4982524;28;20221;-79
2024/02/21 12:47:14;;;;;;;14.30;8.20;;;12.20;1.00;;;;;;4988462;28;20224;-79
2024/02/21 12:49:41;;;;;;;13.07;6.67;;;12.40;1.00;;;;;;4981063;28;20284;-79